Friday, September 21, 2018, 2:28 AM GMT
Back to Local

CYQI, Yarmouth, N. S.

Location: , , Canada Lat: 43.833
Local Time: 2:28 AM GMT ( 2:28 GMT) Lon: -66.083
Time Zone: GMT Elev: 141 ft

Show me the last for .
Show Decoded

2018-09-21 02:00 METAR CYQI 210200Z 04004KT 15SM BKN240 10/08 A3030 RMK CI5 SLP263 =
2018-09-21 01:00 METAR CYQI 210100Z 05004KT 15SM OVC250 10/08 A3029 RMK CS8 SLP258 =
2018-09-21 00:00 METAR CYQI 210000Z 05006KT 15SM OVC250 11/08 A3027 RMK CS8 SLP254 =
2018-09-20 23:00 METAR CYQI 202300Z 02007KT 15SM FEW035 OVC250 12/09 A3026 RMK SC1CS8 SC TR
                 SLP248 =
2018-09-20 22:00 METAR CYQI 202200Z 01007KT 15SM FEW035 OVC250 14/09 A3024 RMK SC1CS7 SLP241 =
2018-09-20 21:00 METAR CYQI 202100Z 33008KT 15SM FEW038 BKN240 15/09 A3022 RMK SC1CS6 SLP237 =
2018-09-20 20:00 METAR CYQI 202000Z 34011G17KT 15SM SCT040 BKN250 15/09 A3021 RMK SC4CI3 SLP233 =
2018-09-20 19:00 METAR CYQI 201900Z 32012KT 15SM SCT037 BKN240 17/10 A3021 RMK SC3CI4 CC ASOCTD
                 SLP233 =
2018-09-20 18:00 METAR CYQI 201800Z VRB04KT 15SM SCT039 BKN250 17/09 A3022 RMK SC3CI4 CC ASOCTD
                 SLP234 DENSITY ALT 200FT =
2018-09-20 17:42 METAR CYQI 201742Z 32010KT 300V040 15SM SCT035 BKN250 17/10 A3022 RMK SC4CI3
                 WSHFT 1733 SLP235 =
2018-09-20 17:00 METAR CYQI 201700Z 03007KT 350V060 15SM BKN038 BKN250 17/08 A3023 RMK SC5CI2
                 SLP239 =
2018-09-20 16:00 METAR CYQI 201600Z 06009KT 020V090 15SM BKN035 BKN250 17/09 A3024 RMK SC5CI1 CI
                 TR SLP241 =
2018-09-20 15:00 METAR CYQI 201500Z 07011G16KT 020V100 15SM SCT033 SCT250 17/09 A3023 RMK SC4CI1
                 CI TR SLP240 =
2018-09-20 14:00 METAR CYQI 201400Z 06008G15KT 15SM FEW025 FEW250 15/09 A3022 RMK CU1CI1 CI TR
                 SLP235 =
2018-09-20 13:00 METAR CYQI 201300Z 07012G18KT 15SM FEW020 FEW250 14/09 A3021 RMK CF1CI1 CF TR CI
                 TR SLP232 =
2018-09-20 12:00 METAR CYQI 201200Z 06010G16KT 15SM FEW030 FEW250 12/09 A3020 RMK SC1CI1 SC TR CI
                 TR SLP228 =
2018-09-20 11:00 METAR CYQI 201100Z 05006KT 15SM FEW040 FEW100 FEW260 10/09 A3018 RMK SC1AC1CI1
                 SC TR AC TR CI TR SLP221 =
2018-09-20 10:05 METAR CYQI 201005Z 05007KT 15SM FEW250 09/09 A3015 RMK CI1 SLP212 =
2018-09-20 08:00 METAR CYQI 200800Z 05011KT 10SM BKN063 11/10 A3012 RMK SC5 SLP201 =
2018-09-20 06:00 METAR CYQI 200600Z 06009KT 10SM BKN045 OVC067 12/11 A3010 RMK SC5AC3 SLP194 =
2018-09-20 05:00 METAR CYQI 200500Z 05009KT 10SM OVC043 13/11 A3008 RMK SC8 SLP190 =
2018-09-20 04:00 METAR CYQI 200400Z 05010G16KT 12SM OVC045 13/12 A3008 RMK SC8 SLP189 =
2018-09-20 03:00 METAR CYQI 200300Z 05008KT 12SM BKN045 OVC067 13/12 A3007 RMK SC5AC3 SLP183 =

Support USWX by starting your Amazon purchase here.